Time;durP1;ratioP1;P1;durP2;ratioP2;P2;SDS_P1;SDS_P2;PMS_P1;PMS_P2;Temp;Humidity;BMP_temperature;BMP_pressure;BME280_temperature;BME280_humidity;BME280_pressure;Samples;Min_cycle;Max_cycle;Signal;HPM_P1;HPM_P2
2022/05/03 00:02:21;;;;;;;6.92;6.28;;;;;;;11.82;58.59;98944.09;1727245;82;20974;-65
2022/05/03 00:05:07;;;;;;;7.17;6.58;;;;;;;11.77;58.68;98942.52;1697086;82;20991;-68
2022/05/03 00:07:58;;;;;;;8.13;7.03;;;;;;;11.71;58.87;98944.59;1743498;82;20951;-68
2022/05/03 00:10:28;;;;;;;7.40;6.45;;;;;;;11.67;59.04;98945.97;1747458;82;21014;-67
2022/05/03 00:13:03;;;;;;;9.18;7.53;;;;;;;11.65;59.27;98946.68;1720662;82;21161;-68
2022/05/03 00:15:32;;;;;;;8.88;6.97;;;;;;;11.61;59.50;98932.91;1739976;82;21017;-69
2022/05/03 00:17:58;;;;;;;7.50;6.80;;;;;;;11.59;59.56;98939.44;1748876;82;20931;-67
2022/05/03 00:20:25;;;;;;;7.83;7.10;;;;;;;11.58;59.62;98941.77;1748905;82;20899;-66
2022/05/03 00:22:52;;;;;;;6.60;5.97;;;;;;;11.55;59.75;98935.52;1736027;82;21545;-68
2022/05/03 00:25:18;;;;;;;7.83;7.08;;;;;;;11.54;59.82;98941.34;1714185;83;21207;-69
2022/05/03 00:27:45;;;;;;;7.50;6.15;;;;;;;11.53;59.95;98938.84;1730155;81;20911;-67
2022/05/03 00:30:12;;;;;;;7.05;6.33;;;;;;;11.50;60.02;98936.56;1722459;82;20962;-68
2022/05/03 00:32:40;;;;;;;7.03;6.33;;;;;;;11.49;60.05;98941.09;1733294;82;21005;-68
2022/05/03 00:35:10;;;;;;;9.63;6.42;;;;;;;11.51;60.07;98936.39;1727121;81;21061;-69
2022/05/03 00:37:37;;;;;;;7.72;6.30;;;;;;;11.51;60.07;98936.89;1730133;82;21262;-68
2022/05/03 00:40:05;;;;;;;10.90;7.42;;;;;;;11.50;59.95;98933.89;1729238;82;21078;-68
2022/05/03 00:43:07;;;;;;;8.03;7.22;;;;;;;11.45;59.90;98930.98;1739132;82;21048;-67
2022/05/03 00:45:47;;;;;;;8.88;8.08;;;;;;;11.36;59.94;98936.95;1738230;82;20911;-69
2022/05/03 00:48:36;;;;;;;10.78;9.00;;;;;;;11.26;60.26;98934.27;1704906;82;20992;-68
2022/05/03 00:51:16;;;;;;;9.30;8.43;;;;;;;11.17;60.66;98932.22;1726120;82;21277;-67
2022/05/03 00:54:19;;;;;;;10.30;8.45;;;;;;;11.14;61.09;98932.08;1715024;82;20892;-69
2022/05/03 00:57:07;;;;;;;10.68;8.95;;;;;;;11.14;61.45;98939.23;1726277;82;20894;-69
2022/05/03 00:59:56;;;;;;;12.65;10.40;;;;;;;11.14;61.75;98931.25;1732941;81;20940;-67
2022/05/03 01:02:29;;;;;;;13.65;12.23;;;;;;;11.19;61.94;98930.18;1730973;82;20987;-69
2022/05/03 01:05:09;;;;;;;12.88;10.28;;;;;;;11.22;62.12;98928.98;1704203;82;21143;-66
2022/05/03 01:07:51;;;;;;;13.70;8.98;;;;;;;11.29;62.22;98929.38;1704765;82;21079;-66
2022/05/03 01:10:26;;;;;;;8.83;7.87;;;;;;;11.34;62.27;98926.17;1704330;82;20892;-65
2022/05/03 01:13:06;;;;;;;10.88;7.92;;;;;;;11.40;62.09;98925.39;1710905;82;21007;-66
2022/05/03 01:15:38;;;;;;;8.33;6.78;;;;;;;11.42;61.96;98919.39;1706697;82;20931;-68
2022/05/03 01:18:30;;;;;;;8.78;6.90;;;;;;;11.46;61.79;98924.64;1704576;82;21274;-68
2022/05/03 01:21:15;;;;;;;10.65;7.05;;;;;;;11.52;61.59;98919.91;1704012;82;20992;-68
2022/05/03 01:24:08;;;;;;;;;;;;;;;11.56;61.42;98919.83;1716166;82;20971;-66
2022/05/03 01:27:01;;;;;;;10.68;7.30;;;;;;;11.63;61.24;98920.20;1707585;82;20090;-68
2022/05/03 01:29:33;;;;;;;6.75;6.10;;;;;;;11.68;61.14;98915.63;1724375;82;21418;-67
2022/05/03 01:32:09;;;;;;;8.38;7.58;;;;;;;11.71;61.01;98912.63;1733002;81;21325;-68
2022/05/03 01:34:36;;;;;;;9.10;8.23;;;;;;;11.73;60.84;98915.41;1718444;82;20939;-66
2022/05/03 01:37:33;;;;;;;9.58;8.68;;;;;;;11.73;60.57;98922.61;1704696;82;21574;-69
2022/05/03 01:40:06;;;;;;;10.03;8.45;;;;;;;11.68;60.58;98915.16;1708140;82;28322;-68
2022/05/03 01:43:14;;;;;;;9.68;8.60;;;;;;;11.61;60.54;98918.25;1704657;82;21436;-68
2022/05/03 01:46:11;;;;;;;9.75;8.45;;;;;;;11.53;60.66;98920.20;1664055;82;21432;-67
2022/05/03 01:52:21;;;;;;;8.65;7.83;;;;;;;11.33;60.94;98918.68;1706916;82;21005;-67
2022/05/03 01:55:22;;;;;;;8.80;7.90;;;;;;;11.23;61.06;98914.67;1738543;81;20868;-66
2022/05/03 01:58:42;;;;;;;9.35;7.83;;;;;;;11.17;61.44;98916.23;1751139;82;20884;-66
2022/05/03 02:01:37;;;;;;;9.90;8.15;;;;;;;11.15;61.94;98911.12;1727973;83;21844;-67
2022/05/03 02:04:14;;;;;;;9.58;8.60;;;;;;;11.15;62.23;98907.12;1715679;82;20987;-67
2022/05/03 02:06:46;;;;;;;11.97;7.90;;;;;;;11.18;61.92;98910.41;1707696;83;21059;-66
2022/05/03 02:09:12;;;;;;;9.90;8.25;;;;;;;11.14;61.63;98909.45;1687236;85;20975;-67
2022/05/03 02:12:08;;;;;;;9.20;8.23;;;;;;;11.09;61.57;98914.52;1722791;82;21093;-68
2022/05/03 02:14:53;;;;;;;9.10;8.20;;;;;;;11.03;61.61;98907.77;1742110;81;21270;-66
2022/05/03 02:17:54;;;;;;;8.60;7.75;;;;;;;10.94;61.61;98905.74;1727513;81;21034;-67
2022/05/03 02:20:57;;;;;;;10.48;8.35;;;;;;;10.86;61.66;98904.52;1742430;82;21033;-67
2022/05/03 02:23:50;;;;;;;8.93;8.00;;;;;;;10.78;62.10;98904.61;1750866;82;21055;-66
2022/05/03 02:26:54;;;;;;;8.70;7.78;;;;;;;10.73;62.53;98901.69;1749463;81;20955;-67
2022/05/03 02:29:29;;;;;;;8.60;7.70;;;;;;;10.72;62.78;98902.68;1732458;81;21288;-68
2022/05/03 02:32:12;;;;;;;9.80;8.35;;;;;;;10.69;62.99;98906.23;1743561;82;20884;-67
2022/05/03 02:34:56;;;;;;;11.03;8.10;;;;;;;10.65;63.12;98903.11;1751478;82;21497;-67
2022/05/03 02:37:26;;;;;;;9.40;8.35;;;;;;;10.62;63.35;98907.46;1743316;81;21025;-68
2022/05/03 02:40:04;;;;;;;8.78;7.97;;;;;;;10.62;63.17;98908.79;1730589;81;21485;-67
2022/05/03 02:42:31;;;;;;;9.20;7.75;;;;;;;10.58;62.95;98906.19;1722890;82;21775;-68
2022/05/03 02:45:01;;;;;;;10.45;8.25;;;;;;;10.55;63.06;98906.55;1713634;82;20856;-68
2022/05/03 02:47:42;;;;;;;8.05;7.33;;;;;;;10.51;63.12;98911.41;1733739;81;20967;-68
2022/05/03 02:50:21;;;;;;;8.63;7.55;;;;;;;10.46;63.27;98908.97;1722765;82;21546;-66
2022/05/03 02:53:02;;;;;;;8.83;8.03;;;;;;;10.44;63.21;98904.34;1722802;82;21457;-66
2022/05/03 02:55:43;;;;;;;12.05;10.85;;;;;;;10.40;63.45;98904.41;1722732;82;21291;-66
2022/05/03 02:58:52;;;;;;;12.33;11.03;;;;;;;10.41;63.81;98905.53;1734743;81;20982;-66
2022/05/03 03:01:50;;;;;;;12.35;11.08;;;;;;;10.45;64.32;98908.67;1724578;81;20903;-66
2022/05/03 03:04:45;;;;;;;10.95;9.88;;;;;;;10.51;64.72;98903.92;1747541;82;20911;-66
2022/05/03 03:07:22;;;;;;;17.55;11.25;;;;;;;10.58;64.83;98910.18;1738608;82;20977;-67
2022/05/03 03:09:56;;;;;;;13.15;10.68;;;;;;;10.67;65.03;98910.39;1728779;81;21158;-66
2022/05/03 03:12:44;;;;;;;;;;;;;;;10.77;65.24;98913.59;1725304;82;21481;-66
2022/05/03 03:15:11;;;;;;;16.48;14.78;;;;;;;10.88;64.89;98906.47;1722699;82;20101;-69
2022/05/03 03:17:44;;;;;;;16.80;14.20;;;;;;;11.02;64.48;98908.80;1701680;83;21017;-68
2022/05/03 03:20:12;;;;;;;15.13;13.50;;;;;;;11.17;64.24;98914.91;1722856;82;21025;-67
2022/05/03 03:22:44;;;;;;;12.63;10.95;;;;;;;11.39;63.93;98905.12;1722706;82;21243;-66
2022/05/03 03:25:14;;;;;;;13.78;9.25;;;;;;;11.54;63.20;98906.72;1742055;82;21560;-68
2022/05/03 03:27:53;;;;;;;16.45;9.30;;;;;;;11.69;62.79;98905.34;1741339;81;20962;-69
2022/05/03 03:30:20;;;;;;;16.32;8.80;;;;;;;11.86;61.95;98909.41;1722704;82;20971;-67
2022/05/03 03:32:56;;;;;;;11.08;8.75;;;;;;;12.03;61.36;98906.77;1734922;82;20860;-69
2022/05/03 03:35:24;;;;;;;9.60;8.35;;;;;;;12.24;60.94;98906.72;1751591;82;21173;-68
2022/05/03 03:37:51;;;;;;;13.88;9.05;;;;;;;12.50;60.65;98897.23;1737339;81;21103;-69
2022/05/03 03:40:19;;;;;;;12.40;8.90;;;;;;;12.76;59.98;98900.88;1722737;82;21089;-68
2022/05/03 03:42:46;;;;;;;11.18;8.85;;;;;;;13.03;59.25;98895.95;1722798;82;20918;-68
2022/05/03 03:45:15;;;;;;;11.78;8.03;;;;;;;13.34;58.41;98891.47;1722943;82;20947;-68
2022/05/03 03:47:44;;;;;;;14.40;8.63;;;;;;;13.60;57.69;98896.87;1735283;81;21146;-66
2022/05/03 03:50:10;;;;;;;14.85;8.55;;;;;;;13.90;56.97;98893.28;1732541;81;21053;-67
2022/05/03 03:52:41;;;;;;;14.35;8.85;;;;;;;14.11;55.96;98889.57;1713589;82;21198;-68
2022/05/03 03:55:09;;;;;;;14.40;9.53;;;;;;;14.19;55.24;98894.71;1722716;82;21006;-66
2022/05/03 03:57:36;;;;;;;20.20;10.98;;;;;;;14.29;54.81;98891.09;1733084;81;20955;-68
2022/05/03 04:00:24;;;;;;;18.57;9.40;;;;;;;14.44;54.38;98894.42;1722903;82;22065;-68
2022/05/03 04:02:50;;;;;;;16.50;9.13;;;;;;;14.64;53.95;98895.19;1655034;86;20963;-68
2022/05/03 04:05:21;;;;;;;11.90;8.38;;;;;;;14.95;53.62;98904.34;1639141;86;20960;-69
2022/05/03 04:07:48;;;;;;;13.50;8.65;;;;;;;15.20;53.07;98906.62;1636212;86;20961;-67
2022/05/03 04:10:14;;;;;;;14.28;8.40;;;;;;;15.41;52.59;98900.41;1629181;86;21504;-67
2022/05/03 04:12:41;;;;;;;19.40;8.05;;;;;;;15.72;52.15;98896.95;1629196;86;21871;-68
2022/05/03 04:15:09;;;;;;;22.50;13.25;;;;;;;16.08;51.65;98896.80;1629123;86;20909;-67
2022/05/03 04:17:36;;;;;;;20.77;10.45;;;;;;;16.44;50.88;98895.53;1641285;86;20883;-67
2022/05/03 04:20:05;;;;;;;11.30;8.63;;;;;;;16.84;50.00;98890.59;1654794;86;20962;-67
2022/05/03 04:22:35;;;;;;;14.87;9.40;;;;;;;17.23;49.39;98890.91;1629025;86;21532;-68
2022/05/03 04:25:04;;;;;;;11.38;8.80;;;;;;;17.66;48.69;98885.89;1637200;86;21930;-67
2022/05/03 04:27:31;;;;;;;14.53;9.08;;;;;;;18.11;47.75;98892.95;1638677;86;20961;-67
2022/05/03 04:29:58;;;;;;;15.30;8.58;;;;;;;18.54;46.76;98882.67;1630062;86;20884;-67
2022/05/03 04:32:29;;;;;;;14.55;8.30;;;;;;;18.95;45.98;98885.17;1629505;86;20956;-69
2022/05/03 04:34:56;;;;;;;13.00;8.40;;;;;;;19.37;45.24;98887.65;1629371;86;20936;-69
2022/05/03 04:37:22;;;;;;;10.35;8.70;;;;;;;19.78;44.47;98878.44;1637966;86;21259;-69
2022/05/03 04:39:49;;;;;;;10.25;8.05;;;;;;;20.17;43.69;98880.99;1638706;86;21621;-69
2022/05/03 04:42:15;;;;;;;14.47;8.95;;;;;;;20.55;42.83;98873.47;1629299;86;20960;-68
2022/05/03 04:44:42;;;;;;;11.73;8.30;;;;;;;20.89;42.17;98877.73;1629163;86;21052;-67
2022/05/03 04:47:08;;;;;;;15.10;8.35;;;;;;;21.23;41.83;98878.44;1633047;86;21095;-68
2022/05/03 04:49:35;;;;;;;22.55;8.85;;;;;;;21.65;40.91;98874.55;1629188;86;21253;-67
2022/05/03 04:52:03;;;;;;;19.35;9.45;;;;;;;22.08;39.98;98873.63;1629079;86;20960;-66
2022/05/03 04:54:29;;;;;;;20.08;12.50;;;;;;;22.51;39.48;98871.20;1629161;86;21008;-69
2022/05/03 04:57:03;;;;;;;15.23;10.28;;;;;;;22.99;38.81;98871.50;1643862;86;21025;-67
2022/05/03 04:59:30;;;;;;;20.27;9.85;;;;;;;23.39;38.02;98875.72;1630104;86;20924;-69
2022/05/03 05:01:56;;;;;;;13.75;9.28;;;;;;;23.79;37.42;98869.56;1636821;86;21210;-67
2022/05/03 05:04:23;;;;;;;16.02;8.38;;;;;;;24.20;36.73;98867.69;1644102;86;20960;-69
2022/05/03 05:06:49;;;;;;;13.55;8.70;;;;;;;24.53;34.72;98866.55;1651136;86;21522;-66
2022/05/03 05:09:16;;;;;;;11.15;8.80;;;;;;;24.86;33.34;98865.69;1670343;85;21468;-68
2022/05/03 05:11:43;;;;;;;9.75;8.15;;;;;;;25.16;32.37;98860.11;1670294;86;21019;-69
2022/05/03 05:14:09;;;;;;;15.53;9.40;;;;;;;25.27;31.84;98861.70;1670030;85;21314;-67
2022/05/03 05:16:36;;;;;;;12.33;9.35;;;;;;;25.40;31.28;98857.00;1668285;86;20944;-68
2022/05/03 05:19:03;;;;;;;11.03;8.35;;;;;;;25.40;31.05;98855.64;1655392;85;21016;-65
2022/05/03 05:21:29;;;;;;;13.80;7.60;;;;;;;25.58;30.64;98860.45;1644406;86;21554;-69
2022/05/03 05:23:56;;;;;;;10.55;7.65;;;;;;;25.73;30.26;98860.92;1644308;86;20951;-68
2022/05/03 05:26:22;;;;;;;10.75;7.95;;;;;;;25.95;29.87;98858.55;1657204;86;21260;-68
2022/05/03 05:28:49;;;;;;;11.03;7.12;;;;;;;26.19;29.41;98861.39;1656680;85;21055;-68
2022/05/03 05:31:15;;;;;;;9.28;8.25;;;;;;;26.41;28.87;98859.56;1657162;84;20918;-68
2022/05/03 05:33:42;;;;;;;10.60;8.15;;;;;;;26.68;28.62;98858.44;1670330;86;21498;-67
2022/05/03 05:36:09;;;;;;;12.93;8.23;;;;;;;26.95;28.52;98860.90;1670285;86;21863;-70
2022/05/03 05:38:35;;;;;;;13.78;8.45;;;;;;;27.27;28.29;98855.31;1649343;86;21054;-68
2022/05/03 05:41:17;;;;;;;10.40;7.60;;;;;;;27.61;27.76;98857.28;1645136;86;21106;-68
2022/05/03 05:43:43;;;;;;;10.35;7.30;;;;;;;27.82;27.04;98857.23;1670507;85;20889;-68
2022/05/03 05:46:10;;;;;;;11.88;7.00;;;;;;;28.06;26.58;98853.06;1670362;85;20928;-69
2022/05/03 05:48:39;;;;;;;8.20;6.67;;;;;;;28.30;26.27;98859.77;1670618;85;20970;-67
2022/05/03 05:51:06;;;;;;;13.62;8.45;;;;;;;28.58;25.98;98859.52;1669854;84;21900;-69
2022/05/03 05:53:32;;;;;;;9.85;7.40;;;;;;;28.90;25.56;98862.77;1670211;85;21004;-68
2022/05/03 05:56:04;;;;;;;7.97;7.20;;;;;;;29.13;25.18;98863.66;1669745;84;21106;-67
2022/05/03 05:58:31;;;;;;;17.12;7.80;;;;;;;29.19;25.12;98857.78;1657266;86;21008;-68
2022/05/03 06:00:58;;;;;;;9.23;6.83;;;;;;;29.29;24.87;98860.33;1673616;84;21110;-67
2022/05/03 06:03:27;;;;;;;8.25;6.53;;;;;;;29.32;24.56;98862.47;1672803;83;21135;-68
2022/05/03 06:05:53;;;;;;;8.63;6.50;;;;;;;29.43;24.49;98856.20;1676182;85;21466;-67
2022/05/03 06:08:20;;;;;;;10.45;5.65;;;;;;;29.66;23.93;98859.23;1678581;85;20948;-69
2022/05/03 06:10:48;;;;;;;9.08;5.75;;;;;;;29.76;23.63;98864.47;1678964;85;20933;-65
2022/05/03 06:13:15;;;;;;;4.95;4.30;;;;;;;30.04;23.33;98861.63;1678997;85;20909;-68
2022/05/03 06:15:42;;;;;;;6.55;4.70;;;;;;;30.33;22.58;98863.36;1678853;85;21147;-67
2022/05/03 06:18:09;;;;;;;5.92;4.90;;;;;;;30.53;22.22;98863.67;1673564;85;21087;-68
2022/05/03 06:20:36;;;;;;;5.85;4.90;;;;;;;30.71;22.06;98864.58;1678833;85;21475;-67
2022/05/03 06:23:04;;;;;;;7.62;4.85;;;;;;;30.94;21.95;98859.29;1677887;85;20972;-66
2022/05/03 06:25:31;;;;;;;6.60;4.85;;;;;;;31.27;21.62;98861.62;1678224;85;21076;-69
2022/05/03 06:27:58;;;;;;;6.17;3.95;;;;;;;31.56;21.09;98863.23;1676169;85;21153;-68
2022/05/03 06:30:24;;;;;;;5.42;4.00;;;;;;;31.82;20.71;98859.13;1666408;85;21549;-69
2022/05/03 06:32:51;;;;;;;9.00;4.28;;;;;;;32.13;20.11;98863.90;1660570;85;20964;-68
2022/05/03 06:35:19;;;;;;;4.45;3.92;;;;;;;32.46;19.77;98865.55;1678460;85;21067;-67
2022/05/03 06:37:46;;;;;;;8.23;4.53;;;;;;;32.78;19.32;98863.02;1664953;85;20972;-69
2022/05/03 06:40:13;;;;;;;6.53;4.10;;;;;;;33.04;19.04;98856.58;1651858;85;21242;-69
2022/05/03 06:42:40;;;;;;;3.77;3.47;;;;;;;33.39;18.42;98855.27;1652004;85;21075;-67
2022/05/03 06:45:08;;;;;;;4.72;3.05;;;;;;;33.65;17.80;98853.17;1660888;85;21114;-68
2022/05/03 06:47:36;;;;;;;5.80;3.55;;;;;;;33.98;17.37;98848.48;1665230;85;21041;-69
2022/05/03 06:50:04;;;;;;;5.12;3.87;;;;;;;34.27;17.21;98849.53;1678266;85;21064;-69
2022/05/03 06:52:32;;;;;;;5.60;3.92;;;;;;;34.60;17.06;98848.38;1678307;85;21121;-68
2022/05/03 06:54:58;;;;;;;5.37;3.92;;;;;;;34.95;16.49;98852.90;1674291;85;20921;-67
2022/05/03 06:57:25;;;;;;;8.08;3.58;;;;;;;35.13;16.20;98852.92;1666950;83;21015;-67
2022/05/03 06:59:53;;;;;;;4.58;2.80;;;;;;;35.23;16.17;98846.92;1676687;85;21020;-68
2022/05/03 07:02:19;;;;;;;5.72;3.42;;;;;;;35.42;15.85;98846.89;1683124;83;21130;-69
2022/05/03 07:04:47;;;;;;;3.95;3.65;;;;;;;35.63;15.58;98851.14;1680608;85;21254;-69
2022/05/03 07:07:13;;;;;;;3.47;3.17;;;;;;;35.83;15.35;98847.39;1684028;85;21058;-69
2022/05/03 07:09:41;;;;;;;4.03;3.60;;;;;;;36.04;15.18;98849.17;1684105;83;21037;-72
2022/05/03 07:12:10;;;;;;;3.75;2.98;;;;;;;36.21;14.98;98849.69;1684502;83;22489;-69
2022/05/03 07:14:36;;;;;;;4.87;3.55;;;;;;;36.32;14.80;98852.75;1685591;83;21150;-75
2022/05/03 07:17:05;;;;;;;4.35;3.10;;;;;;;36.43;14.75;98849.09;1684501;84;21258;-75
2022/05/03 07:25:01;;;;;;;4.70;3.15;;;;;;;36.61;14.65;98849.57;1677320;85;21537;-69
2022/05/03 07:27:28;;;;;;;9.88;3.75;;;;;;;36.81;14.33;98843.55;1685900;85;21040;-71
2022/05/03 07:29:55;;;;;;;4.83;2.83;;;;;;;37.08;14.04;98845.42;1685930;85;21144;-71
2022/05/03 07:32:21;;;;;;;7.17;2.85;;;;;;;37.21;13.87;98846.14;1685904;85;20991;-71
2022/05/03 07:34:48;;;;;;;5.40;2.80;;;;;;;37.06;13.84;98844.98;1685794;83;20896;-71
2022/05/03 07:37:14;;;;;;;2.85;2.65;;;;;;;36.94;13.70;98851.45;1684647;83;20909;-72
2022/05/03 07:39:41;;;;;;;6.28;3.67;;;;;;;36.40;13.86;98848.98;1686610;83;21023;-71
2022/05/03 07:42:08;;;;;;;5.20;3.12;;;;;;;35.99;14.16;98846.05;1659718;85;21311;-72
2022/05/03 07:44:34;;;;;;;2.72;2.50;;;;;;;35.66;14.15;98846.30;1675406;85;21017;-70
2022/05/03 07:47:00;;;;;;;6.00;2.40;;;;;;;35.24;14.51;98850.50;1685707;85;21482;-71
2022/05/03 07:49:27;;;;;;;3.58;2.37;;;;;;;34.90;14.63;98840.70;1686443;85;21043;-71
2022/05/03 07:51:53;;;;;;;4.65;2.30;;;;;;;35.12;14.13;98847.75;1685863;85;20956;-70
2022/05/03 07:54:20;;;;;;;4.37;2.47;;;;;;;35.35;14.00;98842.75;1686466;85;21263;-70
2022/05/03 07:56:46;;;;;;;4.55;2.15;;;;;;;35.46;14.00;98834.78;1686339;85;21002;-71
2022/05/03 07:59:13;;;;;;;2.27;2.10;;;;;;;35.61;13.35;98838.82;1686287;85;20904;-72
2022/05/03 08:01:41;;;;;;;5.22;2.33;;;;;;;35.95;12.93;98836.86;1686196;85;21086;-71
2022/05/03 08:04:07;;;;;;;2.67;2.20;;;;;;;36.37;12.57;98838.64;1678854;85;21404;-70
2022/05/03 08:06:36;;;;;;;7.58;2.60;;;;;;;36.68;12.36;98836.50;1678400;85;20865;-70
2022/05/03 08:09:03;;;;;;;8.10;2.27;;;;;;;37.34;12.28;98830.97;1678713;85;20992;-70
2022/05/03 08:11:30;;;;;;;2.62;2.42;;;;;;;37.78;11.83;98832.35;1678744;85;20957;-71
2022/05/03 08:13:57;;;;;;;2.80;2.60;;;;;;;38.01;11.77;98826.34;1678651;85;20972;-70
2022/05/03 08:16:24;;;;;;;3.70;2.30;;;;;;;38.28;11.17;98818.89;1678656;85;21016;-73
2022/05/03 08:18:51;;;;;;;4.50;2.55;;;;;;;38.09;11.20;98820.34;1678778;85;21208;-70
2022/05/03 08:21:17;;;;;;;13.18;2.90;;;;;;;38.10;11.27;98821.92;1678814;85;21470;-70
2022/05/03 08:23:44;;;;;;;5.37;2.37;;;;;;;38.45;10.87;98824.02;1678701;85;21565;-72
2022/05/03 08:26:11;;;;;;;3.05;2.15;;;;;;;38.82;10.53;98829.84;1678746;85;20984;-71
2022/05/03 08:28:41;;;;;;;2.47;2.27;;;;;;;38.83;10.23;98821.70;1678735;85;21570;-73
2022/05/03 08:31:10;;;;;;;2.75;2.50;;;;;;;37.70;10.59;98827.24;1678708;85;21224;-70
2022/05/03 08:33:37;;;;;;;2.75;2.47;;;;;;;36.78;11.01;98824.30;1678754;85;20953;-70
2022/05/03 08:36:04;;;;;;;3.45;2.47;;;;;;;35.72;11.62;98828.88;1678830;85;20909;-74
2022/05/03 08:44:01;;;;;;;2.87;1.90;;;;;;;35.23;11.54;98818.47;1672749;85;21178;-70
2022/05/03 08:46:27;;;;;;;2.42;2.22;;;;;;;35.68;11.70;98812.74;1678682;85;21059;-71
2022/05/03 08:48:56;;;;;;;2.40;2.20;;;;;;;36.16;11.49;98811.19;1678810;85;21436;-71
2022/05/03 08:51:23;;;;;;;2.55;2.20;;;;;;;36.73;11.41;98806.56;1678792;85;20996;-73
2022/05/03 08:53:50;;;;;;;2.52;1.85;;;;;;;37.44;11.16;98804.88;1678977;85;21036;-70
2022/05/03 08:56:18;;;;;;;2.30;2.08;;;;;;;38.12;10.55;98798.78;1678883;85;21528;-71
2022/05/03 08:58:46;;;;;;;3.58;2.05;;;;;;;38.53;9.96;98798.55;1678899;85;20960;-72
2022/05/03 09:01:12;;;;;;;2.42;2.12;;;;;;;38.82;9.94;98793.70;1678824;85;21090;-71
2022/05/03 09:03:39;;;;;;;3.70;2.10;;;;;;;39.16;9.88;98792.61;1678789;85;21044;-70
2022/05/03 09:06:07;;;;;;;1.90;1.70;;;;;;;39.46;9.82;98785.12;1678870;85;20941;-73
2022/05/03 09:08:34;;;;;;;2.50;1.92;;;;;;;39.90;9.55;98779.72;1678857;85;21258;-71
2022/05/03 09:11:13;;;;;;;2.15;1.87;;;;;;;40.16;9.33;98788.58;1678916;85;21076;-71
2022/05/03 09:13:39;;;;;;;2.22;1.80;;;;;;;39.59;9.46;98783.48;1678835;84;20960;-71
2022/05/03 09:16:15;;;;;;;2.33;1.82;;;;;;;39.16;9.84;98787.66;1678896;85;20937;-70
2022/05/03 09:18:46;;;;;;;1.80;1.70;;;;;;;39.50;9.82;98782.40;1678565;85;21541;-70
2022/05/03 09:24:11;;;;;;;2.77;2.15;;;;;;;37.09;10.88;98793.80;1679032;85;21534;-71
2022/05/03 09:26:39;;;;;;;3.22;1.70;;;;;;;35.94;11.09;98796.50;1678917;85;20957;-71
2022/05/03 09:29:09;;;;;;;2.30;2.10;;;;;;;34.84;11.19;98792.91;1678771;85;20969;-70
2022/05/03 09:31:47;;;;;;;3.90;1.98;;;;;;;34.18;11.52;98787.55;1678601;85;20933;-70
2022/05/03 09:34:28;;;;;;;3.12;1.70;;;;;;;33.06;12.19;98788.23;1678798;85;21879;-70
2022/05/03 09:37:02;;;;;;;3.98;1.70;;;;;;;32.18;12.94;98788.87;1678828;85;20952;-70
2022/05/03 09:39:30;;;;;;;3.15;1.98;;;;;;;31.44;13.71;98799.28;1678926;85;21563;-70
2022/05/03 09:42:18;;;;;;;7.15;2.30;;;;;;;30.85;14.30;98793.88;1678716;85;20968;-69
2022/05/03 09:44:57;;;;;;;6.37;2.42;;;;;;;30.28;15.03;98797.09;1678887;85;21008;-70
2022/05/03 09:47:26;;;;;;;4.20;2.37;;;;;;;29.73;15.77;98806.71;1679005;85;21254;-70
2022/05/03 09:49:52;;;;;;;10.88;3.95;;;;;;;28.97;16.65;98801.56;1678797;85;20968;-70
2022/05/03 09:52:32;;;;;;;12.50;4.53;;;;;;;28.14;17.46;98811.37;1678957;85;21613;-72
2022/05/03 09:55:04;;;;;;;11.60;4.42;;;;;;;27.30;18.13;98806.36;1678891;85;20953;-71
2022/05/03 09:57:32;;;;;;;6.08;3.95;;;;;;;26.63;18.77;98808.85;1678956;85;21008;-70
2022/05/03 09:59:59;;;;;;;5.45;3.37;;;;;;;26.21;19.09;98800.58;1678802;85;21972;-70
2022/05/03 10:02:28;;;;;;;7.05;3.55;;;;;;;25.93;19.31;98802.72;1678916;85;20965;-71
2022/05/03 10:04:56;;;;;;;8.38;3.62;;;;;;;25.73;19.67;98805.08;1684055;85;20954;-70
2022/05/03 10:07:26;;;;;;;6.00;3.25;;;;;;;25.68;20.02;98803.19;1684026;85;21036;-70
2022/05/03 10:09:53;;;;;;;5.33;2.83;;;;;;;25.67;20.25;98806.20;1684164;84;21035;-69
2022/05/03 10:12:20;;;;;;;4.95;2.45;;;;;;;25.68;20.19;98801.83;1684053;84;21214;-72
2022/05/03 10:14:48;;;;;;;2.77;2.22;;;;;;;25.72;20.08;98805.63;1683828;85;21048;-70
2022/05/03 10:20:39;;;;;;;3.45;2.00;;;;;;;25.95;19.96;98805.42;1683956;85;20948;-70
2022/05/03 10:23:28;;;;;;;2.20;1.95;;;;;;;26.28;19.56;98795.05;1683926;85;21009;-71
2022/05/03 10:26:01;;;;;;;9.85;2.40;;;;;;;26.64;19.31;98788.66;1684157;85;21415;-70
2022/05/03 10:29:09;;;;;;;2.37;2.05;;;;;;;27.04;19.07;98783.83;1684132;84;21569;-71
2022/05/03 10:32:03;;;;;;;2.42;2.22;;;;;;;27.37;18.73;98780.89;1656342;86;21514;-70
2022/05/03 10:34:48;;;;;;;3.62;2.08;;;;;;;27.61;18.00;98778.64;1683934;85;21095;-71
2022/05/03 10:37:20;;;;;;;5.83;2.92;;;;;;;27.50;18.14;98777.44;1666758;85;20908;-70
2022/05/03 10:39:54;;;;;;;5.85;2.08;;;;;;;27.34;17.93;98777.92;1657459;85;21119;-69
2022/05/03 10:42:29;;;;;;;2.00;1.80;;;;;;;27.20;18.02;98771.02;1657455;85;21031;-71
2022/05/03 10:45:11;;;;;;;5.62;2.27;;;;;;;27.07;18.10;98768.20;1657567;85;21076;-71
2022/05/03 10:47:54;;;;;;;2.75;2.30;;;;;;;26.98;18.69;98766.70;1657441;85;20960;-70
2022/05/03 10:50:32;;;;;;;4.00;2.22;;;;;;;26.90;18.76;98770.09;1676282;85;20959;-69
2022/05/03 10:53:07;;;;;;;2.33;1.87;;;;;;;26.82;18.72;98772.92;1684288;85;21278;-70
2022/05/03 10:55:41;;;;;;;6.35;2.00;;;;;;;26.77;18.87;98785.27;1683993;85;21068;-71
2022/05/03 10:58:18;;;;;;;9.08;2.25;;;;;;;26.81;19.23;98788.20;1654778;85;20995;-71
2022/05/03 11:01:14;;;;;;;4.17;2.27;;;;;;;27.00;19.55;98789.60;1684171;85;20960;-71
2022/05/03 11:03:51;;;;;;;5.72;1.95;;;;;;;27.06;19.44;98783.80;1664533;85;21021;-71
2022/05/03 11:06:23;;;;;;;4.72;2.37;;;;;;;27.07;19.54;98784.03;1649371;85;21144;-71
2022/05/03 11:11:43;;;;;;;4.78;2.20;;;;;;;27.15;19.69;98781.20;1652487;85;20960;-70
2022/05/03 11:14:22;;;;;;;3.95;1.92;;;;;;;27.16;19.56;98780.10;1671138;85;21039;-70
2022/05/03 11:16:51;;;;;;;5.97;2.60;;;;;;;27.12;19.48;98778.50;1678988;85;20964;-69
2022/05/03 11:19:19;;;;;;;3.33;2.20;;;;;;;26.99;19.39;98761.48;1678768;85;21263;-73
2022/05/03 11:21:47;;;;;;;2.77;2.17;;;;;;;26.93;19.47;98760.74;1678781;85;21083;-73
2022/05/03 11:24:25;;;;;;;5.08;1.98;;;;;;;26.95;19.53;98762.65;1678754;85;20905;-72
2022/05/03 11:26:56;;;;;;;5.00;2.40;;;;;;;26.92;19.54;98763.78;1678831;85;20964;-68
2022/05/03 11:29:32;;;;;;;8.05;3.27;;;;;;;26.91;19.79;98761.59;1678818;85;21561;-71
2022/05/03 11:31:59;;;;;;;8.33;2.52;;;;;;;26.90;20.18;98760.53;1678416;84;21109;-73
2022/05/03 11:34:26;;;;;;;4.25;1.82;;;;;;;26.94;20.33;98764.29;1678786;85;21480;-72
2022/05/03 11:36:53;;;;;;;4.97;2.08;;;;;;;26.94;20.20;98769.20;1678840;85;21003;-72
2022/05/03 11:39:21;;;;;;;9.28;2.72;;;;;;;26.90;20.17;98768.17;1678859;85;21009;-73
2022/05/03 11:41:48;;;;;;;2.95;2.30;;;;;;;26.84;20.04;98763.88;1678760;85;21076;-70
2022/05/03 11:44:16;;;;;;;5.58;2.50;;;;;;;26.80;20.20;98764.19;1678780;85;21285;-71
2022/05/03 11:46:44;;;;;;;8.25;2.80;;;;;;;26.78;20.39;98760.13;1678680;85;20905;-69
2022/05/03 11:49:12;;;;;;;4.12;2.05;;;;;;;26.77;20.34;98760.71;1679106;85;21000;-70
2022/05/03 11:57:35;;;;;;;2.25;1.60;;;;;;;26.52;19.90;98746.52;1652537;85;21809;-71
2022/05/03 12:00:05;;;;;;;2.87;1.85;;;;;;;26.49;19.84;98742.45;1652344;85;21060;-71
2022/05/03 12:02:36;;;;;;;3.15;2.47;;;;;;;26.38;19.53;98733.58;1661141;85;20960;-70
2022/05/03 12:05:17;;;;;;;2.92;1.72;;;;;;;26.24;19.56;98723.67;1681583;84;20962;-72
2022/05/03 12:07:50;;;;;;;2.92;1.60;;;;;;;26.08;19.31;98718.91;1691962;84;20960;-72
2022/05/03 12:10:35;;;;;;;2.98;1.80;;;;;;;25.94;19.42;98719.89;1691902;84;21148;-70
2022/05/03 12:13:24;;;;;;;3.30;2.15;;;;;;;25.75;19.66;98715.16;1691704;84;20913;-69
2022/05/03 12:16:03;;;;;;;2.85;1.90;;;;;;;25.70;19.61;98703.50;1667498;84;21059;-72
2022/05/03 12:18:35;;;;;;;3.83;2.08;;;;;;;25.60;19.55;98709.83;1691911;84;20952;-70
2022/05/03 12:21:29;;;;;;;3.55;1.82;;;;;;;25.54;19.62;98703.38;1691890;84;21068;-71
2022/05/03 12:24:03;;;;;;;7.60;2.80;;;;;;;25.38;19.87;98699.94;1683477;84;21949;-71
2022/05/03 12:26:40;;;;;;;5.80;2.37;;;;;;;25.21;20.53;98698.17;1665058;84;20967;-69
2022/05/03 12:29:07;;;;;;;12.88;2.30;;;;;;;25.19;20.84;98698.98;1665141;84;25499;-70